createdAt,value
2023-05-11T04:31:33.021Z,44.2659
2023-05-11T04:32:35.011Z,43.1923
2023-05-11T04:33:36.995Z,42.4105
2023-05-11T04:34:39.241Z,41.9281
2023-05-11T04:35:41.129Z,41.4940
2023-05-11T04:36:43.139Z,41.0418
2023-05-11T04:37:45.188Z,40.8043
2023-05-11T04:38:47.202Z,40.5073
2023-05-11T04:39:49.316Z,40.1587
2023-05-11T04:40:51.287Z,39.8810
2023-05-11T04:41:53.335Z,39.7616
2023-05-11T04:42:55.402Z,39.7754
2023-05-11T04:43:57.420Z,39.5061
2023-05-11T04:44:59.642Z,39.3629
2023-05-11T04:46:01.545Z,39.4447
2023-05-11T04:47:03.650Z,39.2875
2023-05-11T04:48:05.619Z,39.0400
2023-05-11T04:49:07.701Z,38.9809
2023-05-11T04:50:09.706Z,39.1151
2023-05-11T04:51:11.859Z,39.2598
2023-05-11T04:52:13.815Z,39.8510
2023-05-11T04:53:15.862Z,40.5616
2023-05-11T04:54:17.923Z,41.9780
2023-05-11T04:55:19.944Z,41.5830
2023-05-11T04:56:21.973Z,43.3676
2023-05-11T04:57:24.149Z,41.7175
2023-05-11T04:58:26.095Z,40.4737
2023-05-11T04:59:28.160Z,40.0318
2023-05-11T05:00:30.182Z,39.9026
2023-05-11T05:01:32.297Z,39.7939
2023-05-11T05:02:34.299Z,39.7183
2023-05-11T05:03:36.456Z,39.6047
2023-05-11T05:04:38.390Z,39.4626
2023-05-11T05:05:40.445Z,39.3882
2023-05-11T05:06:42.452Z,39.3410
2023-05-11T05:07:44.522Z,39.2503
2023-05-11T05:08:46.553Z,39.2971
2023-05-11T05:09:48.698Z,39.4692
2023-05-11T05:10:50.664Z,39.2681
2023-05-11T05:11:52.726Z,39.2647
2023-05-11T05:12:54.783Z,39.1610
2023-05-11T05:13:56.820Z,39.0490
2023-05-11T05:14:58.873Z,39.0522
2023-05-11T05:16:01.021Z,39.1057
2023-05-11T05:17:03.022Z,39.0260
2023-05-11T05:18:05.053Z,38.8641
2023-05-11T05:19:07.097Z,38.7903
2023-05-11T05:20:09.092Z,38.9601
2023-05-11T05:21:11.126Z,38.9850
2023-05-11T05:22:13.307Z,39.1874
2023-05-11T05:23:15.285Z,39.0569
2023-05-11T05:24:17.287Z,39.0869
2023-05-11T05:25:19.370Z,39.0827
2023-05-11T05:26:21.396Z,39.0492
2023-05-11T05:27:23.477Z,39.1276
2023-05-11T05:28:25.505Z,39.2402
2023-05-11T05:29:27.515Z,39.3409
2023-05-11T05:30:29.603Z,39.1247
2023-05-11T05:31:31.674Z,39.1266
2023-05-11T05:32:33.717Z,39.3124
2023-05-11T05:33:35.722Z,39.2639
2023-05-11T05:34:37.782Z,39.4245
2023-05-11T05:35:39.816Z,39.1991
2023-05-11T05:36:41.882Z,39.1505
2023-05-11T05:37:44.955Z,39.0783
2023-05-11T05:38:47.882Z,38.9665
2023-05-11T05:39:49.931Z,38.8397
2023-05-11T05:40:50.302Z,38.8843
2023-05-11T05:41:52.202Z,38.9813
2023-05-11T05:42:54.176Z,38.9713
2023-05-11T05:43:57.872Z,38.9978
2023-05-11T05:44:58.267Z,38.9269
2023-05-11T05:46:00.899Z,39.1447
2023-05-11T05:47:02.372Z,39.3205
2023-05-11T05:48:04.439Z,39.2288
2023-05-11T05:49:06.488Z,39.2096
2023-05-11T05:50:08.537Z,39.3718
2023-05-11T05:51:10.544Z,39.5177
2023-05-11T05:52:12.621Z,39.7054
2023-05-11T05:53:14.648Z,39.6721
2023-05-11T05:54:16.687Z,39.7165
2023-05-11T05:55:18.736Z,39.8104
2023-05-11T05:56:20.797Z,39.8585
2023-05-11T05:57:22.897Z,40.0972
2023-05-11T05:58:27.015Z,40.0757
2023-05-11T05:59:26.957Z,39.9649
2023-05-11T06:00:29.049Z,39.8886
2023-05-11T06:01:31.325Z,40.3084
2023-05-11T06:02:33.182Z,40.3495
2023-05-11T06:03:35.239Z,40.3668
2023-05-11T06:04:37.196Z,40.0756
2023-05-11T06:05:39.239Z,40.0529
2023-05-11T06:06:41.320Z,40.2452
2023-05-11T06:07:46.683Z,40.2731
2023-05-11T06:08:45.374Z,40.9729
2023-05-11T06:09:47.436Z,40.8198
2023-05-11T06:10:49.488Z,41.2957
2023-05-11T06:11:51.591Z,41.2004
2023-05-11T06:12:53.586Z,41.5262
2023-05-11T06:13:55.655Z,41.3168
2023-05-11T06:14:59.344Z,41.6365
2023-05-11T06:15:59.858Z,41.5848
2023-05-11T06:17:01.849Z,41.5843
2023-05-11T06:18:03.857Z,41.7002
2023-05-11T06:19:06.073Z,41.7167
2023-05-11T06:20:07.939Z,41.6573
2023-05-11T06:21:09.992Z,41.7634
2023-05-11T06:22:12.070Z,41.6897
2023-05-11T06:23:14.085Z,41.7071
2023-05-11T06:24:16.163Z,41.8351
2023-05-11T06:25:18.159Z,42.0767
2023-05-11T06:26:20.189Z,42.5575
2023-05-11T06:27:22.231Z,43.1249
2023-05-11T06:28:24.299Z,42.9957
2023-05-11T06:29:26.397Z,42.9641
2023-05-11T06:30:28.392Z,43.3068
2023-05-11T06:31:30.475Z,42.8889
2023-05-11T06:32:33.434Z,43.4094
2023-05-11T06:33:34.764Z,43.4717
2023-05-11T06:34:36.676Z,43.2177
2023-05-11T06:35:38.598Z,43.3012
2023-05-11T06:36:40.706Z,43.5554
2023-05-11T06:37:42.689Z,43.5661
2023-05-11T06:38:44.784Z,43.4025
2023-05-11T06:39:47.461Z,43.4964
2023-05-11T06:40:48.864Z,43.5939
2023-05-11T06:41:51.031Z,43.6749
2023-05-11T06:42:52.964Z,43.3975
2023-05-11T06:43:56.070Z,43.3348
2023-05-11T06:44:57.092Z,43.4865
2023-05-11T06:45:59.074Z,43.6072
2023-05-11T06:47:01.103Z,43.7711
2023-05-11T06:48:03.263Z,43.5660
2023-05-11T06:49:05.240Z,43.6286
2023-05-11T06:50:07.356Z,43.5790
2023-05-11T06:51:09.922Z,43.6012
2023-05-11T06:52:11.327Z,43.5279
2023-05-11T06:53:13.965Z,44.0376
2023-05-11T06:54:17.448Z,43.9522
2023-05-11T06:55:17.482Z,44.0722
2023-05-11T06:56:19.713Z,44.0519
2023-05-11T06:57:23.480Z,43.8001
2023-05-11T06:58:23.619Z,43.5743
2023-05-11T06:59:26.414Z,43.5322
2023-05-11T07:00:27.695Z,43.4347
2023-05-11T07:01:29.786Z,43.8675
2023-05-11T07:02:31.786Z,44.0769
2023-05-11T07:03:34.201Z,44.1984
2023-05-11T07:04:35.909Z,44.2614
2023-05-11T07:05:37.927Z,44.2660
2023-05-11T07:06:40.024Z,43.9451
2023-05-11T07:07:42.020Z,44.1060
2023-05-11T07:08:44.044Z,44.3824
2023-05-11T07:09:46.088Z,44.2823
2023-05-11T07:10:48.162Z,43.4515
2023-05-11T07:11:50.348Z,43.4456
2023-05-11T07:12:52.278Z,43.4762
2023-05-11T07:13:54.328Z,43.3631
2023-05-11T07:15:04.362Z,43.5424
2023-05-11T07:15:59.916Z,43.2172
2023-05-11T07:17:00.448Z,43.0132
2023-05-11T07:18:02.469Z,43.0274
2023-05-11T07:19:04.579Z,42.7466
2023-05-11T07:20:14.400Z,43.1394
2023-05-11T07:21:10.398Z,43.1541
2023-05-11T07:22:12.193Z,43.1287
2023-05-11T07:23:12.962Z,43.1787
2023-05-11T07:24:14.707Z,43.4853
2023-05-11T07:25:16.758Z,43.1723
2023-05-11T07:26:18.793Z,43.2807
2023-05-11T07:27:21.356Z,43.5248
2023-05-11T07:28:22.862Z,44.1052
2023-05-11T07:29:24.904Z,43.8054
2023-05-11T07:30:27.111Z,43.7574
2023-05-11T07:31:29.035Z,43.1839
2023-05-11T07:32:31.065Z,42.8619
2023-05-11T07:33:33.180Z,42.9278
2023-05-11T07:34:35.123Z,43.0016
2023-05-11T07:35:37.172Z,43.2067
2023-05-11T07:36:39.211Z,43.0643
2023-05-11T07:37:41.316Z,43.0438
2023-05-11T07:38:43.414Z,43.3462
2023-05-11T07:39:45.364Z,43.2598
2023-05-11T07:40:47.412Z,43.2328
2023-05-11T07:41:49.438Z,43.2181
2023-05-11T07:42:52.233Z,43.2321
2023-05-11T07:43:53.556Z,43.5070
2023-05-11T07:44:55.554Z,43.7479
2023-05-11T07:45:57.661Z,43.4757
2023-05-11T07:46:59.656Z,43.5126
2023-05-11T07:48:01.798Z,43.5165
2023-05-11T07:49:15.809Z,43.5263
2023-05-11T07:50:05.815Z,43.9295
2023-05-11T07:51:07.862Z,43.7833
2023-05-11T07:52:09.890Z,43.5938
2023-05-11T07:53:11.935Z,42.9738
2023-05-11T07:54:14.925Z,43.0983
2023-05-11T07:55:15.990Z,43.4177
2023-05-11T07:56:19.898Z,44.0403
2023-05-11T07:57:20.098Z,43.8274
2023-05-11T07:58:22.144Z,43.5582
2023-05-11T07:59:24.326Z,43.4199
2023-05-11T08:00:26.242Z,43.5383
2023-05-11T08:01:28.821Z,43.4633
2023-05-11T08:02:30.376Z,43.6580
2023-05-11T08:03:32.370Z,44.0255
2023-05-11T08:04:34.384Z,43.6649
2023-05-11T08:05:36.501Z,43.2967
2023-05-11T08:06:38.461Z,43.8136
2023-05-11T08:07:41.606Z,44.2709
2023-05-11T08:08:42.577Z,43.7042
2023-05-11T08:09:44.591Z,43.2587
2023-05-11T08:10:46.673Z,43.7440
2023-05-11T08:11:48.669Z,43.1331
2023-05-11T08:12:50.806Z,43.0875
2023-05-11T08:13:52.800Z,43.6420
2023-05-11T08:14:54.946Z,43.2732
2023-05-11T08:15:56.882Z,43.0185
2023-05-11T08:16:59.387Z,43.2435
2023-05-11T08:18:00.992Z,43.2546
2023-05-11T08:19:03.089Z,43.5521
2023-05-11T08:20:05.055Z,43.5660
2023-05-11T08:21:07.068Z,44.1459
2023-05-11T08:22:09.220Z,43.7266
2023-05-11T08:23:11.147Z,43.9170
2023-05-11T08:24:13.187Z,44.6987
2023-05-11T08:25:15.225Z,44.7649
2023-05-11T08:26:17.328Z,45.1536
2023-05-11T08:27:19.401Z,44.9338
2023-05-11T08:28:21.340Z,44.7064
2023-05-11T08:29:23.407Z,44.9389
2023-05-11T08:30:25.474Z,45.3327
2023-05-11T08:31:27.485Z,45.2780
2023-05-11T08:32:29.734Z,44.7203
2023-05-11T08:33:38.080Z,44.9841
2023-05-11T08:34:33.801Z,45.0412
2023-05-11T08:35:35.784Z,44.8185
2023-05-11T08:36:37.960Z,44.3194
2023-05-11T08:37:39.808Z,44.9855
2023-05-11T08:38:41.852Z,44.6659
2023-05-11T08:39:47.673Z,45.2067
2023-05-11T08:40:45.968Z,44.6287
2023-05-11T08:41:48.047Z,44.9647
2023-05-11T08:42:50.047Z,44.7391
2023-05-11T08:43:52.062Z,44.7748
2023-05-11T08:44:55.451Z,45.1044
2023-05-11T08:45:56.243Z,44.9672
2023-05-11T08:47:14.329Z,45.4998
2023-05-11T08:48:00.306Z,45.2458
2023-05-11T08:49:02.464Z,44.7564
2023-05-11T08:50:04.480Z,44.7121
2023-05-11T08:51:06.425Z,44.6655
2023-05-11T08:52:08.438Z,45.3129
2023-05-11T08:53:10.457Z,44.9930
2023-05-11T08:54:12.507Z,44.5302
2023-05-11T08:55:14.694Z,44.1973
2023-05-11T08:56:16.623Z,43.9533
2023-05-11T08:57:18.769Z,44.1395
2023-05-11T08:58:20.685Z,44.6014
2023-05-11T08:59:22.914Z,44.2688
2023-05-11T09:00:24.793Z,44.2390
2023-05-11T09:01:26.913Z,43.9100
2023-05-11T09:02:28.947Z,43.7554
2023-05-11T09:03:30.937Z,43.8569
2023-05-11T09:04:32.978Z,43.8993
2023-05-11T09:05:35.958Z,43.5597
2023-05-11T09:06:37.062Z,43.6418
2023-05-11T09:07:39.096Z,44.0042
2023-05-11T09:08:41.157Z,43.7993
2023-05-11T09:09:43.352Z,43.9365
2023-05-11T09:10:45.351Z,43.9439
2023-05-11T09:11:47.953Z,43.7074
2023-05-11T09:12:51.001Z,43.8561
2023-05-11T09:13:51.380Z,44.0271
2023-05-11T09:14:53.399Z,43.8689
2023-05-11T09:15:56.114Z,43.6297
2023-05-11T09:16:59.412Z,43.4280
2023-05-11T09:17:59.596Z,44.0005
2023-05-11T09:19:01.798Z,44.1255
2023-05-11T09:20:03.623Z,43.5385
2023-05-11T09:21:05.656Z,43.1474
2023-05-11T09:22:07.700Z,43.0781
2023-05-11T09:23:11.670Z,42.6973
2023-05-11T09:24:12.257Z,42.8135
2023-05-11T09:25:15.649Z,42.3909
2023-05-11T09:26:15.971Z,42.6755
2023-05-11T09:27:21.222Z,42.8942
2023-05-11T09:29:22.038Z,42.5961
2023-05-11T09:30:24.125Z,42.8781
2023-05-11T09:31:26.082Z,42.8429
2023-05-11T09:32:28.937Z,43.3574
2023-05-11T09:33:33.251Z,43.1711
2023-05-11T09:34:32.947Z,43.1848
2023-05-11T09:35:34.307Z,42.9051
2023-05-11T09:36:36.350Z,43.0446
2023-05-11T09:37:38.336Z,43.4631
2023-05-11T09:38:40.398Z,42.9819
2023-05-11T09:39:59.286Z,42.8722
2023-05-11T09:40:44.486Z,43.3534
2023-05-11T09:41:46.613Z,43.2879
2023-05-11T09:42:48.632Z,42.9719
2023-05-11T09:43:50.631Z,43.0301
2023-05-11T09:44:52.656Z,42.9558
2023-05-11T09:45:56.772Z,42.8254
2023-05-11T09:46:56.715Z,42.4973
2023-05-11T09:47:58.829Z,42.3018
2023-05-11T09:49:00.833Z,42.4821
2023-05-11T09:50:02.847Z,42.4600
2023-05-11T09:51:04.899Z,42.7245
2023-05-11T09:52:06.949Z,42.0957
2023-05-11T09:53:10.215Z,41.9688
2023-05-11T09:54:11.052Z,41.9793
2023-05-11T09:55:13.083Z,42.2742
2023-05-11T09:56:15.173Z,42.9617
2023-05-11T09:57:17.202Z,42.4448
2023-05-11T09:58:19.206Z,42.4022
2023-05-11T09:59:21.321Z,42.3747
2023-05-11T10:00:23.325Z,42.3624
2023-05-11T10:01:25.439Z,42.2660
2023-05-11T10:02:27.453Z,42.7650
2023-05-11T10:03:29.633Z,42.2884
2023-05-11T10:04:31.716Z,42.2941
2023-05-11T10:05:33.537Z,42.1137
2023-05-11T10:06:35.624Z,41.6254
2023-05-11T10:07:37.636Z,42.1275
2023-05-11T10:08:39.711Z,41.8471
2023-05-11T10:09:41.782Z,42.3973
2023-05-11T10:10:43.773Z,42.3402
2023-05-11T10:11:45.900Z,42.6027
2023-05-11T10:12:47.924Z,42.5441
2023-05-11T10:13:49.932Z,42.3014
2023-05-11T10:14:51.961Z,42.1510
2023-05-11T10:15:54.000Z,41.4404
2023-05-11T10:16:56.335Z,41.3781
2023-05-11T10:17:58.121Z,41.7059
2023-05-11T10:19:00.248Z,41.9743
2023-05-11T10:20:02.165Z,42.8801
2023-05-11T10:21:04.631Z,42.2745
2023-05-11T10:22:06.352Z,42.1212
2023-05-11T10:23:08.316Z,41.6995
2023-05-11T10:24:11.990Z,41.8087
2023-05-11T10:25:12.450Z,42.1052
2023-05-11T10:26:14.526Z,41.3459
2023-05-11T10:27:16.495Z,41.6862
2023-05-11T10:28:18.900Z,41.8498
2023-05-11T10:29:20.551Z,41.4568
2023-05-11T10:30:22.620Z,41.7395
2023-05-11T10:31:24.702Z,41.7925
2023-05-11T10:32:26.731Z,42.0617
2023-05-11T10:33:28.767Z,42.4143
2023-05-11T10:34:31.097Z,42.1001
2023-05-11T10:35:32.896Z,43.0242
2023-05-11T10:36:34.908Z,43.4981
2023-05-11T10:37:36.984Z,43.0177
2023-05-11T10:38:38.945Z,42.5085
2023-05-11T10:39:41.004Z,41.9451
2023-05-11T10:40:43.032Z,41.3715
2023-05-11T10:41:45.134Z,41.7233
2023-05-11T10:42:47.335Z,41.5713
2023-05-11T10:43:49.251Z,41.2270
2023-05-11T10:44:51.423Z,40.8686
2023-05-11T10:45:53.277Z,41.3167
2023-05-11T10:46:55.305Z,41.6752
2023-05-11T10:47:57.384Z,42.2014
2023-05-11T10:48:59.439Z,42.0388
2023-05-11T10:50:01.492Z,42.3071
2023-05-11T10:51:03.526Z,42.4907
2023-05-11T10:52:05.576Z,42.3326
2023-05-11T10:53:07.651Z,42.3839
2023-05-11T10:54:09.646Z,43.9776
2023-05-11T10:55:11.688Z,42.3237
2023-05-11T10:56:13.733Z,41.8533
2023-05-11T10:57:15.756Z,41.6934
2023-05-11T10:58:17.899Z,42.3992
2023-05-11T10:59:19.856Z,41.7874
2023-05-11T11:00:22.130Z,42.3343
2023-05-11T11:01:23.968Z,42.4833
2023-05-11T11:02:26.121Z,41.5639
2023-05-11T11:03:28.065Z,41.3808
2023-05-11T11:04:30.093Z,41.3017
2023-05-11T11:05:32.168Z,40.9257
2023-05-11T11:06:34.220Z,40.9630
2023-05-11T11:07:36.242Z,40.9071
2023-05-11T11:08:38.318Z,41.2281
2023-05-11T11:09:40.360Z,41.3440
2023-05-11T11:10:42.439Z,41.6189
2023-05-11T11:11:44.422Z,41.5856
2023-05-11T11:12:46.689Z,41.3608
2023-05-11T11:13:48.568Z,41.7586
2023-05-11T11:14:50.588Z,42.3389
2023-05-11T11:15:52.569Z,42.2033
2023-05-11T11:16:54.749Z,42.5004
2023-05-11T11:17:56.713Z,42.6462
2023-05-11T11:18:58.771Z,43.1021
2023-05-11T11:20:00.802Z,43.0625
2023-05-11T11:21:02.829Z,42.9712
2023-05-11T11:22:04.856Z,43.2814
2023-05-11T11:23:06.944Z,43.0543
2023-05-11T11:24:14.525Z,42.5234
2023-05-11T11:25:11.122Z,42.9049
2023-05-11T11:26:13.185Z,42.8031
2023-05-11T11:27:15.115Z,43.1440
2023-05-11T11:28:17.181Z,43.0901
2023-05-11T11:29:20.011Z,42.6585
2023-05-11T11:30:21.330Z,42.8484
2023-05-11T11:31:24.092Z,43.1779
2023-05-11T11:32:25.444Z,43.0719
2023-05-11T11:33:27.524Z,42.7720
2023-05-11T11:34:29.495Z,43.1799
2023-05-11T11:35:31.606Z,43.1333
2023-05-11T11:36:33.557Z,43.4458
2023-05-11T11:37:35.649Z,43.0211
2023-05-11T11:38:37.664Z,42.8051
2023-05-11T11:39:39.686Z,43.1137
2023-05-11T11:40:50.609Z,43.1969
2023-05-11T11:41:43.751Z,43.1526
2023-05-11T11:42:45.825Z,42.6892
2023-05-11T11:43:47.873Z,42.4707
2023-05-11T11:44:49.931Z,41.9721
2023-05-11T11:45:51.993Z,42.7849
2023-05-11T11:46:54.013Z,41.9822
2023-05-11T11:47:56.042Z,41.9670
2023-05-11T11:48:58.082Z,41.7564
2023-05-11T11:50:01.996Z,42.4451
2023-05-11T11:51:02.160Z,42.3359
2023-05-11T11:52:04.248Z,42.5112
2023-05-11T11:53:06.305Z,42.5275
2023-05-11T11:54:08.390Z,42.4244
2023-05-11T11:55:10.465Z,42.6910
2023-05-11T11:56:12.443Z,42.8860
2023-05-11T11:57:14.462Z,42.7914
2023-05-11T11:58:16.499Z,42.8387
2023-05-11T11:59:18.577Z,43.1017
2023-05-11T12:00:20.694Z,43.3026
2023-05-11T12:01:23.527Z,43.0970
2023-05-11T12:02:24.938Z,43.6701
2023-05-11T12:03:26.750Z,43.2993
2023-05-11T12:04:28.869Z,43.1885
2023-05-11T12:05:31.561Z,42.9132
2023-05-11T12:06:32.859Z,43.4912
2023-05-11T12:07:37.314Z,43.4122
2023-05-11T12:08:42.611Z,43.1264
2023-05-11T12:09:43.835Z,43.2174
2023-05-11T12:10:45.834Z,43.3996
2023-05-11T12:11:47.898Z,43.4574
2023-05-11T12:12:49.917Z,43.2573
2023-05-11T12:13:51.980Z,42.9604
2023-05-11T12:14:54.059Z,42.6204
2023-05-11T12:15:56.051Z,43.0582
2023-05-11T12:16:58.136Z,42.9812
2023-05-11T12:18:00.214Z,43.3675
2023-05-11T12:19:02.436Z,43.5050
2023-05-11T12:20:04.266Z,43.1303
2023-05-11T12:21:06.333Z,43.1335
2023-05-11T12:22:08.336Z,43.2370
2023-05-11T12:23:10.405Z,43.3897
2023-05-11T12:24:12.539Z,43.6423
2023-05-11T12:25:14.496Z,43.4865
2023-05-11T12:26:16.523Z,43.1636
2023-05-11T12:27:18.604Z,43.3706
2023-05-11T12:28:20.632Z,43.1854
2023-05-11T12:29:22.689Z,43.4378
2023-05-11T12:30:24.777Z,43.2679
2023-05-11T12:31:26.796Z,43.4600
2023-05-11T12:32:28.839Z,43.4216
2023-05-11T12:33:30.910Z,43.4496
2023-05-11T12:34:32.923Z,43.6212
2023-05-11T12:35:34.982Z,43.7428
2023-05-11T12:36:37.021Z,43.6803
2023-05-11T12:37:39.058Z,43.5755
2023-05-11T12:38:41.108Z,43.6358
2023-05-11T12:39:43.316Z,43.8129
2023-05-11T12:40:45.318Z,43.8678
2023-05-11T12:41:47.316Z,43.8832
2023-05-11T12:42:50.062Z,44.2251
2023-05-11T12:43:51.498Z,44.0515
2023-05-11T12:44:53.482Z,43.8254
2023-05-11T12:45:55.504Z,43.8377
2023-05-11T12:46:57.540Z,44.1081
2023-05-11T12:47:59.631Z,44.8787
2023-05-11T12:49:01.603Z,43.8903
2023-05-11T12:50:03.728Z,43.9458
2023-05-11T12:51:06.562Z,43.9271
2023-05-11T12:52:08.281Z,43.7488
2023-05-11T12:53:09.781Z,43.9789
2023-05-11T12:54:11.837Z,44.2932
2023-05-11T12:55:13.968Z,43.5753
2023-05-11T12:56:15.958Z,43.4961
2023-05-11T12:57:17.988Z,43.9308
2023-05-11T12:58:20.085Z,44.2193
2023-05-11T12:59:22.129Z,44.2592
2023-05-11T13:00:24.133Z,44.0704
2023-05-11T13:01:26.196Z,44.2558
2023-05-11T13:02:28.316Z,44.1652
2023-05-11T13:03:30.358Z,44.4518
2023-05-11T13:04:32.399Z,44.0676
2023-05-11T13:05:34.402Z,44.2012
2023-05-11T13:06:36.412Z,44.3288
2023-05-11T13:07:38.493Z,44.2713
2023-05-11T13:08:40.549Z,44.3464
2023-05-11T13:09:42.659Z,44.8901
2023-05-11T13:10:44.594Z,44.6905
2023-05-11T13:11:46.679Z,44.9120
2023-05-11T13:12:48.723Z,44.7782
2023-05-11T13:13:50.798Z,44.8421
2023-05-11T13:14:52.782Z,44.7240
2023-05-11T13:15:55.405Z,45.1432
2023-05-11T13:16:56.906Z,45.3143
2023-05-11T13:17:58.994Z,45.0937
2023-05-11T13:19:01.115Z,45.3937
2023-05-11T13:20:03.055Z,45.1756
2023-05-11T13:21:05.064Z,45.1367
2023-05-11T13:22:07.157Z,44.4870
2023-05-11T13:23:09.214Z,44.4262
2023-05-11T13:24:11.241Z,44.6997
2023-05-11T13:25:13.289Z,44.4432
2023-05-11T13:26:15.349Z,44.4093
2023-05-11T13:27:17.392Z,44.0787
2023-05-11T13:28:19.439Z,44.1274
2023-05-11T13:29:21.461Z,44.2444
2023-05-11T13:30:24.085Z,44.0776
2023-05-11T13:31:25.925Z,44.4651
2023-05-11T13:32:27.681Z,43.9866
2023-05-11T13:33:29.656Z,43.6020
2023-05-11T13:34:31.769Z,43.1365
2023-05-11T13:35:33.769Z,42.8490
2023-05-11T13:36:35.809Z,43.2208
2023-05-11T13:37:38.585Z,43.2543
2023-05-11T13:38:42.537Z,43.2831
2023-05-11T13:39:42.078Z,43.2997
2023-05-11T13:40:43.969Z,42.8567
2023-05-11T13:41:46.071Z,42.7440
2023-05-11T13:42:48.221Z,42.5559
2023-05-11T13:43:50.124Z,43.0875
2023-05-11T13:44:52.178Z,42.8617
2023-05-11T13:45:54.218Z,42.7644
2023-05-11T13:46:56.290Z,42.9787
2023-05-11T13:47:58.349Z,42.9929
2023-05-11T13:49:02.700Z,42.6755
2023-05-11T13:50:02.407Z,42.1560
2023-05-11T13:51:04.445Z,41.9699
2023-05-11T13:52:06.612Z,42.1692
2023-05-11T13:53:08.558Z,42.5217
2023-05-11T13:54:10.605Z,42.4403
2023-05-11T13:55:12.635Z,42.5440
2023-05-11T13:56:14.681Z,42.5767
2023-05-11T13:57:16.851Z,42.5308
2023-05-11T13:58:18.768Z,43.0023
2023-05-11T13:59:20.835Z,43.3056
2023-05-11T14:00:22.922Z,43.0465
2023-05-11T14:01:24.938Z,43.3871
2023-05-11T14:02:27.163Z,43.5885
2023-05-11T14:03:29.088Z,43.9481
2023-05-11T14:04:31.135Z,44.1904
2023-05-11T14:05:33.111Z,44.7841
2023-05-11T14:06:35.148Z,44.8544
2023-05-11T14:07:46.979Z,45.4249
2023-05-11T14:08:39.275Z,45.2693
2023-05-11T14:09:41.374Z,44.5512
2023-05-11T14:10:43.323Z,44.4619
2023-05-11T14:11:45.393Z,44.0068
2023-05-11T14:12:47.423Z,43.7621
2023-05-11T14:13:49.504Z,44.2734
2023-05-11T14:14:52.004Z,44.4559
2023-05-11T14:15:53.940Z,44.6390
2023-05-11T14:16:55.956Z,44.3284
2023-05-11T14:17:57.768Z,44.3633
2023-05-11T14:19:00.051Z,44.4044
2023-05-11T14:20:01.822Z,44.4212
2023-05-11T14:21:03.773Z,44.3423
2023-05-11T14:22:05.827Z,44.3350
2023-05-11T14:23:08.428Z,44.6965
2023-05-11T14:24:12.189Z,44.8576
2023-05-11T14:25:12.062Z,44.7514
2023-05-11T14:26:14.040Z,44.6597
2023-05-11T14:27:17.038Z,44.6201
2023-05-11T14:28:18.163Z,45.0775
2023-05-11T14:29:20.161Z,45.3659
2023-05-11T14:30:22.277Z,44.9221
2023-05-11T14:31:24.300Z,44.5119
2023-05-11T14:32:26.326Z,44.1461
2023-05-11T14:33:28.383Z,44.2249
2023-05-11T14:34:30.424Z,44.3182
2023-05-11T14:35:32.517Z,44.1189
2023-05-11T14:36:34.495Z,44.9057
2023-05-11T14:37:36.572Z,45.6311
2023-05-11T14:38:38.657Z,45.7410
2023-05-11T14:39:40.678Z,45.7044
2023-05-11T14:40:42.681Z,45.8570
2023-05-11T14:41:44.705Z,46.1258
2023-05-11T14:42:47.684Z,45.3145
2023-05-11T14:43:48.824Z,44.4886
2023-05-11T14:44:50.971Z,44.2195
2023-05-11T14:45:52.945Z,43.9698
2023-05-11T14:46:55.250Z,44.2409
2023-05-11T14:47:57.040Z,44.3805
2023-05-11T14:48:59.081Z,44.8716
2023-05-11T14:50:01.114Z,45.3272
2023-05-11T14:51:03.115Z,45.1625
2023-05-11T14:52:05.192Z,45.2470
2023-05-11T14:53:07.237Z,44.6043
2023-05-11T14:54:09.345Z,44.6223
2023-05-11T14:55:11.311Z,44.3463
2023-05-11T14:56:13.405Z,44.0909
2023-05-11T14:57:15.472Z,44.4476
2023-05-11T14:58:17.447Z,45.2604
2023-05-11T14:59:19.541Z,45.6764
2023-05-11T15:00:21.583Z,45.3633
2023-05-11T15:01:23.641Z,45.5354
2023-05-11T15:02:26.121Z,46.1463
2023-05-11T15:03:27.839Z,46.0322
2023-05-11T15:04:29.762Z,46.3618
2023-05-11T15:05:31.916Z,45.5897
2023-05-11T15:06:33.883Z,46.1298
2023-05-11T15:07:35.864Z,45.9562
2023-05-11T15:08:37.921Z,46.3340
2023-05-11T15:09:44.519Z,46.1414
2023-05-11T15:10:42.042Z,46.0091
2023-05-11T15:11:44.067Z,45.9555
2023-05-11T15:12:46.229Z,46.1273
2023-05-11T15:13:48.402Z,45.5856
2023-05-11T15:14:50.233Z,46.6942
2023-05-11T15:15:52.331Z,46.3359
2023-05-11T15:16:54.320Z,45.8228
2023-05-11T15:17:56.508Z,45.4259
2023-05-11T15:19:01.079Z,45.1240
2023-05-11T15:20:00.462Z,44.8280
2023-05-11T15:21:02.580Z,45.0670
2023-05-11T15:22:04.569Z,45.1506
2023-05-11T15:23:06.619Z,44.6580
2023-05-11T15:24:10.779Z,44.7289
2023-05-11T15:25:10.687Z,45.3106
2023-05-11T15:26:13.029Z,45.3150
2023-05-11T15:27:14.757Z,45.3575
2023-05-11T15:28:16.802Z,45.8538
2023-05-11T15:29:18.899Z,45.4658
2023-05-11T15:30:20.910Z,45.4854
2023-05-11T15:31:22.976Z,45.7914
2023-05-11T15:32:25.037Z,45.8879
2023-05-11T15:33:27.247Z,46.1076
2023-05-11T15:34:29.077Z,45.4707
2023-05-11T15:35:31.199Z,45.3954
2023-05-11T15:36:33.223Z,44.8503
2023-05-11T15:37:35.250Z,44.6801
2023-05-11T15:38:37.247Z,44.9893
2023-05-11T15:39:39.324Z,45.3087
2023-05-11T15:40:41.409Z,45.2699
2023-05-11T15:41:43.409Z,45.0712
2023-05-11T15:42:45.469Z,44.9038
2023-05-11T15:43:47.510Z,45.0300
2023-05-11T15:44:49.569Z,45.2382
2023-05-11T15:45:51.736Z,45.0775
2023-05-11T15:46:53.608Z,44.7399
2023-05-11T15:47:55.718Z,44.3567
2023-05-11T15:48:59.697Z,44.2856
2023-05-11T15:49:59.904Z,45.3468
2023-05-11T15:51:01.799Z,46.6243
2023-05-11T15:52:03.880Z,44.4400
2023-05-11T15:53:05.961Z,44.0970
2023-05-11T15:54:07.961Z,43.8109
2023-05-11T15:55:10.001Z,43.9968
2023-05-11T15:56:12.033Z,44.0085
2023-05-11T15:57:14.084Z,43.6487
2023-05-11T15:58:16.327Z,43.4141
2023-05-11T15:59:18.217Z,43.6555
2023-05-11T16:00:20.426Z,43.8608
2023-05-11T16:01:22.363Z,43.5755
2023-05-11T16:02:25.194Z,43.3897
2023-05-11T16:03:26.508Z,42.7510
2023-05-11T16:04:28.411Z,42.4181
2023-05-11T16:05:30.452Z,42.3294
2023-05-11T16:06:32.560Z,41.8842
2023-05-11T16:07:34.570Z,42.0700
2023-05-11T16:08:36.581Z,42.3627
2023-05-11T16:09:39.652Z,41.9869
2023-05-11T16:10:40.707Z,42.1528
2023-05-11T16:11:42.728Z,42.0877
2023-05-11T16:12:44.887Z,42.0732
2023-05-11T16:13:46.798Z,42.0239
2023-05-11T16:14:48.919Z,41.7172
2023-05-11T16:15:52.648Z,42.4301
2023-05-11T16:16:52.981Z,42.2276
2023-05-11T16:17:55.032Z,42.4291
2023-05-11T16:18:57.104Z,42.2111
2023-05-11T16:19:59.179Z,41.8746
2023-05-11T16:21:01.135Z,42.2037
2023-05-11T16:22:03.164Z,42.5958
2023-05-11T16:23:05.224Z,42.6092
2023-05-11T16:24:07.372Z,42.7898
2023-05-11T16:25:09.400Z,42.6299
2023-05-11T16:26:11.367Z,42.6423
2023-05-11T16:27:13.452Z,42.6258
2023-05-11T16:28:15.458Z,42.4761
2023-05-11T16:29:19.173Z,42.7475
2023-05-11T16:30:25.459Z,42.3841
2023-05-11T16:31:21.657Z,41.7599
2023-05-11T16:32:23.656Z,41.8625
2023-05-11T16:33:25.684Z,41.8770
2023-05-11T16:34:28.744Z,41.7382
2023-05-11T16:35:29.758Z,41.9951
2023-05-11T16:36:31.790Z,41.9826
2023-05-11T16:37:33.896Z,42.0023
2023-05-11T16:38:35.905Z,41.9827
2023-05-11T16:39:37.943Z,42.1092
2023-05-11T16:40:40.028Z,42.4051
2023-05-11T16:41:42.072Z,42.4241
2023-05-11T16:42:44.048Z,42.5000
2023-05-11T16:43:46.212Z,42.5775
2023-05-11T16:44:48.212Z,42.6012
2023-05-11T16:45:50.286Z,42.7635
2023-05-11T16:46:52.575Z,42.8802
2023-05-11T16:47:54.407Z,42.9013
2023-05-11T16:48:57.928Z,42.9021
2023-05-11T16:49:58.528Z,43.4299
2023-05-11T16:51:00.533Z,42.9212
2023-05-11T16:52:02.571Z,42.9372
2023-05-11T16:53:04.707Z,43.1411
2023-05-11T16:54:06.691Z,43.7583
2023-05-11T16:55:08.683Z,43.8809
2023-05-11T16:56:10.742Z,43.8527
2023-05-11T16:57:13.063Z,43.9817
2023-05-11T16:58:14.906Z,44.0062
2023-05-11T16:59:16.915Z,44.1533
2023-05-11T17:00:19.076Z,44.7459
2023-05-11T17:01:23.013Z,44.6222
2023-05-11T17:02:23.080Z,44.3472